Time;durP1;ratioP1;P1;durP2;ratioP2;P2;SDS_P1;SDS_P2;PMS_P1;PMS_P2;Temp;Humidity;BMP_temperature;BMP_pressure;BME280_temperature;BME280_humidity;BME280_pressure;Samples;Min_cycle;Max_cycle;Signal;HPM_P1;HPM_P2
2022/06/20 00:00:30;;;;;;;14.23;8.05;;;;;;;;;;5067840;28;20228;-75
2022/06/20 00:02:58;;;;;;;12.60;8.10;;;;;;;;;;5077531;28;20360;-75
2022/06/20 00:05:28;;;;;;;12.30;7.90;;;;;;;;;;5078126;28;20197;-74
2022/06/20 00:07:55;;;;;;;12.48;8.48;;;;;;;;;;5073578;28;20668;-74
2022/06/20 00:10:24;;;;;;;12.65;8.30;;;;;;;;;;5074091;28;20232;-74
2022/06/20 00:12:52;;;;;;;12.48;8.10;;;;;;;;;;5078756;28;20229;-75
2022/06/20 00:15:24;;;;;;;15.98;8.25;;;;;;;;;;5078147;28;20268;-74
2022/06/20 00:17:52;;;;;;;17.25;8.10;;;;;;;;;;5065160;28;20205;-75
2022/06/20 00:20:19;;;;;;;12.80;8.30;;;;;;;;;;5074496;28;20303;-75
2022/06/20 00:22:49;;;;;;;13.57;8.25;;;;;;;;;;5072188;28;20300;-75
2022/06/20 00:25:16;;;;;;;13.10;8.25;;;;;;;;;;5080026;28;20284;-76
2022/06/20 00:27:44;;;;;;;11.50;7.97;;;;;;;;;;5079418;28;20289;-75
2022/06/20 00:30:13;;;;;;;12.00;8.07;;;;;;;;;;5076326;28;20288;-76
2022/06/20 00:32:40;;;;;;;13.43;8.07;;;;;;;;;;5074764;28;20228;-75
2022/06/20 00:35:11;;;;;;;15.57;8.38;;;;;;;;;;5080938;28;20205;-75
2022/06/20 00:37:38;;;;;;;13.30;7.47;;;;;;;;;;5078486;28;20237;-74
2022/06/20 00:40:26;;;;;;;11.63;7.70;;;;;;;;;;5074062;28;20225;-75
2022/06/20 00:42:55;;;;;;;11.73;7.68;;;;;;;;;;5074406;28;20308;-75
2022/06/20 00:45:23;;;;;;;14.80;8.20;;;;;;;;;;5051276;28;20204;-75
2022/06/20 00:47:52;;;;;;;12.15;7.20;;;;;;;;;;5078898;28;20228;-74
2022/06/20 00:50:21;;;;;;;17.10;7.90;;;;;;;;;;5077842;28;20295;-73
2022/06/20 00:52:57;;;;;;;15.48;7.70;;;;;;;;;;5079851;28;20259;-74
2022/06/20 00:55:31;;;;;;;10.73;7.32;;;;;;;;;;5079720;28;20334;-76
2022/06/20 00:58:02;;;;;;;10.73;7.88;;;;;;;;;;5079389;28;20231;-75
2022/06/20 01:00:32;;;;;;;13.23;8.25;;;;;;;;;;5070285;28;20712;-76
2022/06/20 01:03:03;;;;;;;15.43;8.13;;;;;;;;;;5072174;28;20320;-74
2022/06/20 01:05:41;;;;;;;10.77;7.45;;;;;;;;;;5076110;28;20205;-76
2022/06/20 01:08:14;;;;;;;14.90;8.15;;;;;;;;;;5080311;28;20624;-75
2022/06/20 01:11:01;;;;;;;16.38;8.38;;;;;;;;;;5075687;28;20297;-73
2022/06/20 01:13:28;;;;;;;10.13;7.25;;;;;;;;;;5070718;28;20292;-73
2022/06/20 01:15:58;;;;;;;12.60;7.53;;;;;;;;;;5071359;28;20286;-75
2022/06/20 01:18:32;;;;;;;12.65;6.50;;;;;;;;;;5074172;28;20258;-73
2022/06/20 01:21:00;;;;;;;10.38;6.55;;;;;;;;;;5070551;28;20237;-73
2022/06/20 01:23:44;;;;;;;12.32;6.90;;;;;;;;;;5069660;28;20225;-74
2022/06/20 01:26:23;;;;;;;15.63;6.82;;;;;;;;;;5072357;28;20343;-76
2022/06/20 01:28:56;;;;;;;15.30;6.50;;;;;;;;;;5071085;28;20305;-76
2022/06/20 01:31:24;;;;;;;15.27;7.07;;;;;;;;;;5076328;28;20228;-76
2022/06/20 01:33:53;;;;;;;11.10;6.50;;;;;;;;;;5078502;28;20240;-75
2022/06/20 01:39:07;;;;;;;11.18;6.20;;;;;;;;;;5073381;28;20650;-74
2022/06/20 01:44:23;;;;;;;17.02;6.65;;;;;;;;;;5069631;28;20222;-75
2022/06/20 01:46:51;;;;;;;18.85;6.75;;;;;;;;;;5071961;28;20205;-74
2022/06/20 01:49:19;;;;;;;10.18;6.60;;;;;;;;;;5073622;28;20205;-76
2022/06/20 01:51:58;;;;;;;10.05;6.47;;;;;;;;;;5079125;28;20269;-75
2022/06/20 01:54:29;;;;;;;11.45;6.35;;;;;;;;;;5064554;28;20917;-75
2022/06/20 01:56:56;;;;;;;12.68;6.45;;;;;;;;;;5061423;28;20224;-76
2022/06/20 01:59:26;;;;;;;12.50;6.53;;;;;;;;;;5076238;28;20312;-76
2022/06/20 02:01:53;;;;;;;9.15;6.72;;;;;;;;;;5073897;28;20247;-75
2022/06/20 02:04:23;;;;;;;19.60;10.55;;;;;;;;;;5082381;28;20205;-75
2022/06/20 02:06:51;;;;;;;15.73;10.00;;;;;;;;;;5073097;28;20256;-75
2022/06/20 02:09:19;;;;;;;15.93;8.05;;;;;;;;;;5074304;28;20228;-77
2022/06/20 02:11:47;;;;;;;15.35;7.47;;;;;;;;;;5072806;28;20228;-74
2022/06/20 02:14:19;;;;;;;9.88;6.38;;;;;;;;;;5062425;28;20229;-74
2022/06/20 02:16:50;;;;;;;9.13;6.40;;;;;;;;;;5070788;28;20204;-75
2022/06/20 02:19:19;;;;;;;12.18;6.78;;;;;;;;;;5073279;28;20241;-75
2022/06/20 02:21:47;;;;;;;13.63;6.47;;;;;;;;;;5073802;28;20224;-75
2022/06/20 02:24:17;;;;;;;8.95;6.60;;;;;;;;;;5074159;28;20648;-75
2022/06/20 02:26:46;;;;;;;12.40;6.65;;;;;;;;;;5085822;28;20319;-75
2022/06/20 02:29:22;;;;;;;13.95;8.02;;;;;;;;;;5075866;28;20201;-75
2022/06/20 02:31:55;;;;;;;12.63;8.32;;;;;;;;;;5075920;28;20289;-76
2022/06/20 02:34:25;;;;;;;12.10;8.63;;;;;;;;;;5076134;28;20209;-74
2022/06/20 02:36:53;;;;;;;13.52;8.77;;;;;;;;;;5076273;28;20201;-74
2022/06/20 02:39:21;;;;;;;14.15;8.20;;;;;;;;;;5077283;28;20308;-75
2022/06/20 02:41:50;;;;;;;16.58;9.35;;;;;;;;;;5077186;28;20201;-75
2022/06/20 02:44:19;;;;;;;15.85;8.60;;;;;;;;;;5077963;28;20208;-76
2022/06/20 02:46:47;;;;;;;13.35;7.93;;;;;;;;;;5076617;28;20197;-75
2022/06/20 02:49:17;;;;;;;16.42;8.27;;;;;;;;;;5077564;28;20216;-74
2022/06/20 02:51:48;;;;;;;9.88;6.75;;;;;;;;;;5082243;28;20330;-74
2022/06/20 02:54:16;;;;;;;11.23;6.90;;;;;;;;;;5081657;28;20676;-76
2022/06/20 02:56:49;;;;;;;11.48;6.75;;;;;;;;;;5083651;28;20255;-75
2022/06/20 02:59:18;;;;;;;11.80;6.95;;;;;;;;;;5060686;28;20837;-75
2022/06/20 03:01:46;;;;;;;9.40;6.68;;;;;;;;;;5068554;28;20601;-76
2022/06/20 03:04:13;;;;;;;16.20;7.45;;;;;;;;;;5079722;28;20217;-77
2022/06/20 03:06:42;;;;;;;12.65;6.43;;;;;;;;;;5076518;28;20204;-75
2022/06/20 03:09:14;;;;;;;10.25;6.78;;;;;;;;;;5070368;28;20809;-76
2022/06/20 03:11:41;;;;;;;14.98;7.68;;;;;;;;;;5070731;28;20350;-76
2022/06/20 03:14:11;;;;;;;13.80;7.32;;;;;;;;;;5060512;28;21309;-74
2022/06/20 03:16:39;;;;;;;17.55;7.80;;;;;;;;;;5082823;28;20300;-75
2022/06/20 03:19:10;;;;;;;13.75;6.63;;;;;;;;;;5078590;28;20201;-75
2022/06/20 03:21:38;;;;;;;10.45;6.30;;;;;;;;;;5077492;28;20290;-74
2022/06/20 03:24:07;;;;;;;12.93;6.88;;;;;;;;;;5080080;28;20673;-75
2022/06/20 03:26:34;;;;;;;11.05;5.97;;;;;;;;;;5081919;28;20228;-76
2022/06/20 03:29:01;;;;;;;10.50;5.75;;;;;;;;;;5078197;28;20247;-76
2022/06/20 03:31:28;;;;;;;10.18;5.60;;;;;;;;;;5076277;28;20232;-74
2022/06/20 03:33:56;;;;;;;10.80;5.78;;;;;;;;;;5076506;28;20240;-76
2022/06/20 03:36:24;;;;;;;13.23;5.50;;;;;;;;;;5083171;28;20221;-75
2022/06/20 03:38:52;;;;;;;15.32;6.63;;;;;;;;;;5073459;28;20229;-74
2022/06/20 03:41:22;;;;;;;13.40;6.22;;;;;;;;;;5076868;28;20231;-73
2022/06/20 03:44:01;;;;;;;12.98;7.28;;;;;;;;;;5074609;28;20267;-75
2022/06/20 03:46:30;;;;;;;13.48;5.32;;;;;;;;;;5085662;28;20216;-73
2022/06/20 03:49:16;;;;;;;12.63;6.03;;;;;;;;;;5080889;28;20197;-76
2022/06/20 03:51:48;;;;;;;15.35;6.85;;;;;;;;;;5076890;28;20231;-76
2022/06/20 03:54:27;;;;;;;12.10;5.50;;;;;;;;;;5081945;28;20289;-76
2022/06/20 03:56:57;;;;;;;14.90;6.30;;;;;;;;;;5079229;28;20323;-76
2022/06/20 03:59:52;;;;;;;15.60;6.00;;;;;;;;;;5074884;28;20297;-75
2022/06/20 04:02:25;;;;;;;10.05;5.45;;;;;;;;;;5075500;28;20278;-75
2022/06/20 04:05:00;;;;;;;11.30;5.72;;;;;;;;;;5078700;28;20193;-75
2022/06/20 04:07:31;;;;;;;12.57;5.78;;;;;;;;;;5075588;28;20216;-74
2022/06/20 04:12:57;;;;;;;10.73;5.22;;;;;;;;;;5069073;28;20316;-75
2022/06/20 04:15:45;;;;;;;11.05;4.93;;;;;;;;;;5068590;28;20699;-75
2022/06/20 04:18:28;;;;;;;10.30;5.13;;;;;;;;;;5063139;28;20262;-75
2022/06/20 04:21:16;;;;;;;10.05;5.65;;;;;;;;;;5061971;28;20236;-76
2022/06/20 04:23:49;;;;;;;15.48;5.55;;;;;;;;;;5069916;28;20308;-74
2022/06/20 04:26:25;;;;;;;8.70;4.97;;;;;;;;;;5056929;28;20205;-76
2022/06/20 04:28:53;;;;;;;9.65;6.20;;;;;;;;;;5076541;28;20554;-76
2022/06/20 04:31:23;;;;;;;12.77;5.60;;;;;;;;;;5070952;28;20232;-76
2022/06/20 04:33:56;;;;;;;14.50;6.03;;;;;;;;;;5075898;28;20268;-75
2022/06/20 04:36:29;;;;;;;11.48;5.45;;;;;;;;;;5075831;28;20200;-76
2022/06/20 04:39:19;;;;;;;12.98;4.55;;;;;;;;;;5077530;28;20296;-75
2022/06/20 04:41:57;;;;;;;10.45;5.57;;;;;;;;;;5063351;28;20280;-75
2022/06/20 04:44:30;;;;;;;9.02;5.35;;;;;;;;;;5089078;22;20238;-74
2022/06/20 04:47:06;;;;;;;11.02;5.05;;;;;;;;;;5074637;28;20215;-76
2022/06/20 04:49:34;;;;;;;10.82;5.00;;;;;;;;;;5084747;28;20219;-76
2022/06/20 04:52:02;;;;;;;11.43;5.13;;;;;;;;;;5080524;28;20288;-76
2022/06/20 04:54:29;;;;;;;10.93;4.80;;;;;;;;;;5074452;28;20253;-76
2022/06/20 04:56:56;;;;;;;9.52;4.82;;;;;;;;;;5063909;28;20224;-76
2022/06/20 04:59:26;;;;;;;8.75;5.25;;;;;;;;;;5060261;28;20296;-77
2022/06/20 05:01:56;;;;;;;13.40;5.85;;;;;;;;;;5066703;28;20221;-76
2022/06/20 05:04:31;;;;;;;12.82;5.90;;;;;;;;;;5071538;28;20245;-74
2022/06/20 05:07:01;;;;;;;12.95;6.07;;;;;;;;;;5081564;28;20219;-75
2022/06/20 05:09:29;;;;;;;7.38;5.00;;;;;;;;;;5077603;28;20197;-76
2022/06/20 05:12:17;;;;;;;9.55;5.50;;;;;;;;;;5079899;28;20231;-77
2022/06/20 05:17:17;;;;;;;11.88;6.22;;;;;;;;;;5058183;28;20683;-74
2022/06/20 05:19:47;;;;;;;11.88;5.28;;;;;;;;;;5053750;28;20424;-73
2022/06/20 05:22:23;;;;;;;9.88;5.72;;;;;;;;;;5059502;28;20225;-73
2022/06/20 05:24:55;;;;;;;11.68;7.05;;;;;;;;;;5074334;28;20192;-73
2022/06/20 05:27:24;;;;;;;12.70;6.30;;;;;;;;;;5059295;28;20202;-75
2022/06/20 05:29:54;;;;;;;16.20;6.13;;;;;;;;;;5040175;28;20214;-73
2022/06/20 05:32:23;;;;;;;10.82;6.20;;;;;;;;;;5048863;28;20210;-73
2022/06/20 05:34:55;;;;;;;10.25;6.10;;;;;;;;;;5056983;28;20292;-76
2022/06/20 05:37:28;;;;;;;12.23;6.10;;;;;;;;;;5053167;28;20303;-75
2022/06/20 05:39:57;;;;;;;13.15;6.38;;;;;;;;;;5054358;28;20224;-75
2022/06/20 05:42:26;;;;;;;10.05;5.53;;;;;;;;;;5059841;28;20205;-74
2022/06/20 05:44:53;;;;;;;11.10;5.25;;;;;;;;;;5060020;28;20297;-73
2022/06/20 05:47:35;;;;;;;10.65;5.30;;;;;;;;;;5055045;28;21142;-76
2022/06/20 05:50:19;;;;;;;8.27;4.93;;;;;;;;;;5060491;28;20241;-75
2022/06/20 05:52:47;;;;;;;10.35;5.07;;;;;;;;;;5021356;28;20280;-73
2022/06/20 05:55:16;;;;;;;9.38;5.30;;;;;;;;;;5059449;28;20312;-73
2022/06/20 05:57:45;;;;;;;8.73;4.70;;;;;;;;;;5059563;28;20228;-74
2022/06/20 06:00:20;;;;;;;8.40;5.28;;;;;;;;;;5058341;28;20316;-74
2022/06/20 06:02:50;;;;;;;8.90;5.30;;;;;;;;;;5056894;28;20312;-74
2022/06/20 06:05:21;;;;;;;9.95;5.22;;;;;;;;;;5054520;28;21208;-74
2022/06/20 06:08:13;;;;;;;8.77;4.82;;;;;;;;;;5062205;28;20323;-75
2022/06/20 06:11:04;;;;;;;8.18;4.70;;;;;;;;;;5058190;28;20216;-75
2022/06/20 06:13:36;;;;;;;9.40;5.13;;;;;;;;;;5032663;28;20307;-73
2022/06/20 06:19:01;;;;;;;8.35;5.07;;;;;;;;;;5059498;28;20201;-74
2022/06/20 06:21:30;;;;;;;7.97;5.13;;;;;;;;;;5059860;28;20332;-74
2022/06/20 06:23:58;;;;;;;8.68;5.18;;;;;;;;;;5046525;28;20324;-75
2022/06/20 06:26:25;;;;;;;9.82;5.60;;;;;;;;;;5057907;28;20730;-75
2022/06/20 06:28:53;;;;;;;10.20;5.20;;;;;;;;;;5061595;28;20229;-74
2022/06/20 06:31:26;;;;;;;9.73;5.72;;;;;;;;;;5057309;28;20273;-75
2022/06/20 06:33:57;;;;;;;9.50;5.90;;;;;;;;;;5066538;28;20205;-73
2022/06/20 06:36:35;;;;;;;14.93;7.75;;;;;;;;;;5062855;28;20785;-73
2022/06/20 06:39:21;;;;;;;11.32;5.47;;;;;;;;;;5065702;28;20208;-74
2022/06/20 06:41:51;;;;;;;10.70;5.82;;;;;;;;;;5055515;28;20229;-75
2022/06/20 06:44:33;;;;;;;15.52;9.35;;;;;;;;;;5056706;28;20225;-73
2022/06/20 06:47:00;;;;;;;10.02;6.05;;;;;;;;;;5062568;28;20244;-74
2022/06/20 06:49:44;;;;;;;9.85;6.15;;;;;;;;;;5055177;28;20292;-74
2022/06/20 06:52:24;;;;;;;10.38;6.60;;;;;;;;;;5028542;28;20343;-74
2022/06/20 06:54:53;;;;;;;10.32;5.60;;;;;;;;;;5057504;28;20324;-75
2022/06/20 06:57:26;;;;;;;8.85;5.35;;;;;;;;;;5061764;28;20232;-75
2022/06/20 07:00:03;;;;;;;10.68;6.15;;;;;;;;;;5058085;28;20205;-73
2022/06/20 07:02:33;;;;;;;8.45;6.13;;;;;;;;;;5055643;28;20236;-76
2022/06/20 07:05:04;;;;;;;10.50;6.28;;;;;;;;;;5063657;28;20309;-74
2022/06/20 07:07:31;;;;;;;7.80;5.57;;;;;;;;;;5057606;28;20289;-75
2022/06/20 07:09:58;;;;;;;10.75;6.00;;;;;;;;;;5064225;28;20649;-74
2022/06/20 07:12:35;;;;;;;10.75;5.95;;;;;;;;;;5058606;28;20204;-76
2022/06/20 07:15:07;;;;;;;8.25;5.70;;;;;;;;;;5054495;28;20325;-75
2022/06/20 07:17:53;;;;;;;8.55;5.38;;;;;;;;;;5064881;28;20204;-75
2022/06/20 07:20:22;;;;;;;8.60;5.63;;;;;;;;;;5067078;28;20334;-74
2022/06/20 07:22:49;;;;;;;8.50;5.10;;;;;;;;;;5057123;28;20229;-75
2022/06/20 07:25:19;;;;;;;9.18;5.88;;;;;;;;;;5061601;28;20267;-76
2022/06/20 07:27:54;;;;;;;7.22;5.15;;;;;;;;;;5058843;28;20284;-75
2022/06/20 07:30:24;;;;;;;8.88;5.53;;;;;;;;;;5064314;28;20205;-74
2022/06/20 07:32:56;;;;;;;9.65;5.95;;;;;;;;;;5056312;28;20293;-76
2022/06/20 07:35:36;;;;;;;10.27;6.00;;;;;;;;;;5053683;28;20226;-75
2022/06/20 07:38:07;;;;;;;9.68;5.68;;;;;;;;;;5059353;28;20327;-75
2022/06/20 07:40:45;;;;;;;8.70;5.97;;;;;;;;;;5055602;28;20450;-76
2022/06/20 07:43:21;;;;;;;9.93;5.65;;;;;;;;;;5056072;28;20292;-74
2022/06/20 07:45:50;;;;;;;8.07;5.18;;;;;;;;;;5057753;28;20299;-75
2022/06/20 07:48:26;;;;;;;6.85;5.50;;;;;;;;;;5056143;28;20201;-77
2022/06/20 07:50:59;;;;;;;6.72;5.72;;;;;;;;;;5055595;28;20228;-75
2022/06/20 07:53:31;;;;;;;7.10;6.20;;;;;;;;;;5054666;28;20197;-75
2022/06/20 07:56:00;;;;;;;9.32;5.68;;;;;;;;;;5055097;28;20323;-76
2022/06/20 07:58:30;;;;;;;7.35;5.60;;;;;;;;;;5054988;28;20205;-74
2022/06/20 08:00:58;;;;;;;7.25;5.50;;;;;;;;;;5059801;28;20232;-74
2022/06/20 08:03:28;;;;;;;7.82;5.40;;;;;;;;;;5055912;28;20288;-75
2022/06/20 08:05:58;;;;;;;9.18;5.65;;;;;;;;;;5061550;28;20222;-75
2022/06/20 08:08:38;;;;;;;9.85;5.55;;;;;;;;;;5034087;28;20337;-75
2022/06/20 08:11:40;;;;;;;9.35;5.32;;;;;;;;;;5058404;28;20201;-75
2022/06/20 08:14:25;;;;;;;9.88;5.22;;;;;;;;;;5064996;28;20292;-75
2022/06/20 08:17:01;;;;;;;7.35;5.07;;;;;;;;;;5049325;28;20233;-76
2022/06/20 08:19:29;;;;;;;6.40;5.20;;;;;;;;;;5035191;28;20259;-75
2022/06/20 08:22:02;;;;;;;6.55;5.03;;;;;;;;;;5040814;28;20316;-77
2022/06/20 08:24:35;;;;;;;6.90;5.47;;;;;;;;;;5057593;28;20227;-74
2022/06/20 08:27:07;;;;;;;5.32;4.68;;;;;;;;;;5058762;28;20308;-74
2022/06/20 08:29:37;;;;;;;6.22;4.88;;;;;;;;;;5061610;28;20241;-74
2022/06/20 08:32:25;;;;;;;8.27;4.97;;;;;;;;;;5063260;28;20208;-76
2022/06/20 08:35:18;;;;;;;9.15;4.53;;;;;;;;;;5057879;28;20300;-74
2022/06/20 08:37:50;;;;;;;6.32;4.25;;;;;;;;;;5052117;28;20201;-75
2022/06/20 08:40:17;;;;;;;5.85;4.60;;;;;;;;;;5057170;28;20201;-74
2022/06/20 08:43:00;;;;;;;5.90;4.80;;;;;;;;;;5062806;28;20253;-74
2022/06/20 08:45:54;;;;;;;6.88;5.03;;;;;;;;;;5053964;28;20221;-72
2022/06/20 08:48:21;;;;;;;10.20;4.88;;;;;;;;;;5058045;28;20551;-74
2022/06/20 08:51:03;;;;;;;9.43;5.00;;;;;;;;;;5060276;28;20295;-75
2022/06/20 08:53:43;;;;;;;9.35;4.63;;;;;;;;;;5060584;28;20233;-74
2022/06/20 08:56:17;;;;;;;4.88;4.25;;;;;;;;;;5056592;28;20959;-74
2022/06/20 08:59:19;;;;;;;6.15;4.68;;;;;;;;;;5039274;28;20229;-75
2022/06/20 09:01:49;;;;;;;6.30;4.50;;;;;;;;;;5005979;28;20226;-74
2022/06/20 09:04:36;;;;;;;5.55;4.57;;;;;;;;;;5046921;28;20202;-77
2022/06/20 09:07:17;;;;;;;7.20;4.65;;;;;;;;;;5062749;28;20312;-74
2022/06/20 09:09:57;;;;;;;11.48;4.75;;;;;;;;;;5062298;28;20627;-75
2022/06/20 09:12:38;;;;;;;5.47;4.10;;;;;;;;;;5063028;28;20237;-74
2022/06/20 09:15:17;;;;;;;6.20;4.70;;;;;;;;;;5045444;28;20269;-74
2022/06/20 09:18:05;;;;;;;7.88;5.70;;;;;;;;;;5030805;28;22163;-74
2022/06/20 09:20:40;;;;;;;7.45;5.28;;;;;;;;;;5040137;28;20314;-75
2022/06/20 09:23:16;;;;;;;5.88;4.00;;;;;;;;;;5051943;28;20276;-75
2022/06/20 09:25:43;;;;;;;11.73;6.20;;;;;;;;;;5061813;28;20786;-76
2022/06/20 09:28:11;;;;;;;8.38;4.60;;;;;;;;;;5054469;28;20300;-75
2022/06/20 09:30:38;;;;;;;6.07;3.67;;;;;;;;;;5065345;28;20288;-75
2022/06/20 09:33:23;;;;;;;6.25;4.25;;;;;;;;;;5058473;28;20232;-75
2022/06/20 09:36:11;;;;;;;5.78;3.85;;;;;;;;;;5059823;28;20308;-75
2022/06/20 09:38:56;;;;;;;7.50;3.70;;;;;;;;;;5063577;28;20240;-75
2022/06/20 09:41:23;;;;;;;7.70;4.30;;;;;;;;;;5056840;28;20338;-77
2022/06/20 09:43:54;;;;;;;6.75;4.00;;;;;;;;;;5055927;28;20255;-76
2022/06/20 09:46:45;;;;;;;7.75;4.05;;;;;;;;;;5049144;28;20218;-75
2022/06/20 09:49:23;;;;;;;7.22;4.43;;;;;;;;;;5060308;28;20288;-75
2022/06/20 09:52:01;;;;;;;7.22;3.80;;;;;;;;;;5065056;28;20246;-76
2022/06/20 09:54:41;;;;;;;6.80;3.67;;;;;;;;;;5068611;28;20233;-76
2022/06/20 09:57:17;;;;;;;4.15;3.63;;;;;;;;;;5065105;28;20292;-76
2022/06/20 10:00:03;;;;;;;6.97;4.20;;;;;;;;;;5066390;28;20208;-76
2022/06/20 10:02:42;;;;;;;4.95;3.90;;;;;;;;;;5063138;28;20233;-76
2022/06/20 10:05:13;;;;;;;5.28;4.15;;;;;;;;;;5058981;28;20328;-74
2022/06/20 10:07:47;;;;;;;7.10;3.85;;;;;;;;;;5059056;28;20198;-74
2022/06/20 10:10:24;;;;;;;5.00;3.92;;;;;;;;;;5038142;28;20281;-76
2022/06/20 10:13:14;;;;;;;5.47;3.90;;;;;;;;;;5059660;28;20221;-75
2022/06/20 10:15:48;;;;;;;8.48;3.70;;;;;;;;;;5058566;28;20276;-75
2022/06/20 10:18:54;;;;;;;7.50;3.45;;;;;;;;;;5054985;28;20288;-75
2022/06/20 10:21:21;;;;;;;6.25;3.40;;;;;;;;;;4944973;28;20232;-76
2022/06/20 10:23:51;;;;;;;4.00;3.60;;;;;;;;;;4938328;28;20341;-75
2022/06/20 10:26:18;;;;;;;7.07;3.90;;;;;;;;;;5003683;28;20593;-77
2022/06/20 10:28:48;;;;;;;5.68;3.60;;;;;;;;;;5052600;28;20289;-76
2022/06/20 10:31:32;;;;;;;5.97;3.72;;;;;;;;;;5060862;28;20708;-75
2022/06/20 10:34:32;;;;;;;5.90;3.85;;;;;;;;;;5066099;28;20292;-75
2022/06/20 10:37:14;;;;;;;6.55;3.42;;;;;;;;;;5023013;28;20356;-76
2022/06/20 10:39:50;;;;;;;3.88;3.50;;;;;;;;;;5061861;28;20274;-76
2022/06/20 10:42:35;;;;;;;5.55;3.33;;;;;;;;;;5066985;28;20255;-76
2022/06/20 10:45:03;;;;;;;5.78;3.78;;;;;;;;;;5042421;28;20320;-76
2022/06/20 10:47:45;;;;;;;6.78;3.20;;;;;;;;;;5041206;28;20332;-75
2022/06/20 10:50:35;;;;;;;5.00;3.63;;;;;;;;;;5047869;28;20208;-75
2022/06/20 10:53:23;;;;;;;4.13;3.20;;;;;;;;;;5051337;28;20650;-74
2022/06/20 10:55:59;;;;;;;4.90;3.33;;;;;;;;;;4997948;28;20286;-74
2022/06/20 10:58:29;;;;;;;4.45;3.30;;;;;;;;;;5049851;28;20301;-76
2022/06/20 11:01:00;;;;;;;7.05;3.50;;;;;;;;;;5024510;28;20216;-77
2022/06/20 11:03:46;;;;;;;4.30;3.30;;;;;;;;;;5062537;28;20216;-76
2022/06/20 11:06:21;;;;;;;6.03;3.15;;;;;;;;;;5063628;28;20222;-75
2022/06/20 11:08:51;;;;;;;4.50;3.63;;;;;;;;;;5063959;28;20216;-76
2022/06/20 11:11:37;;;;;;;5.40;3.35;;;;;;;;;;5055118;28;20206;-76
2022/06/20 11:14:17;;;;;;;5.65;3.35;;;;;;;;;;5050298;28;20221;-76
2022/06/20 11:16:55;;;;;;;5.22;3.40;;;;;;;;;;5057195;28;20321;-75
2022/06/20 11:19:30;;;;;;;4.50;3.70;;;;;;;;;;5063275;28;20225;-76
2022/06/20 11:21:58;;;;;;;5.40;3.38;;;;;;;;;;5068986;28;20320;-76
2022/06/20 11:24:37;;;;;;;5.47;3.50;;;;;;;;;;5064513;28;20683;-75
2022/06/20 11:27:07;;;;;;;10.02;3.83;;;;;;;;;;5067924;28;20767;-75
2022/06/20 11:29:35;;;;;;;8.70;3.67;;;;;;;;;;5056467;28;20659;-75
2022/06/20 11:32:05;;;;;;;4.00;3.55;;;;;;;;;;5066891;28;20238;-76
2022/06/20 11:34:42;;;;;;;5.88;3.63;;;;;;;;;;5060376;28;20225;-75
2022/06/20 11:37:21;;;;;;;4.57;3.50;;;;;;;;;;5058771;28;20303;-76
2022/06/20 11:39:54;;;;;;;5.78;3.70;;;;;;;;;;5059669;28;20255;-75
2022/06/20 11:42:24;;;;;;;5.38;3.70;;;;;;;;;;5060937;28;20272;-76
2022/06/20 11:44:52;;;;;;;7.38;3.83;;;;;;;;;;5060960;28;20201;-76
2022/06/20 11:47:29;;;;;;;7.80;3.75;;;;;;;;;;5065245;28;20230;-74
2022/06/20 11:50:05;;;;;;;5.13;3.60;;;;;;;;;;5072405;28;20644;-77
2022/06/20 11:52:48;;;;;;;4.40;3.60;;;;;;;;;;5062767;28;20231;-74
2022/06/20 11:55:15;;;;;;;4.32;3.53;;;;;;;;;;5060525;28;20307;-76
2022/06/20 11:57:47;;;;;;;5.00;4.20;;;;;;;;;;5064444;28;20631;-75
2022/06/20 12:00:21;;;;;;;5.03;3.60;;;;;;;;;;5064681;28;20293;-76
2022/06/20 12:02:53;;;;;;;3.78;3.17;;;;;;;;;;5058926;28;20328;-76
2022/06/20 12:05:21;;;;;;;5.95;3.35;;;;;;;;;;5061476;28;20806;-77
2022/06/20 12:08:18;;;;;;;6.32;3.50;;;;;;;;;;5059477;28;20305;-75
2022/06/20 12:10:52;;;;;;;4.47;3.95;;;;;;;;;;5049187;28;20354;-74
2022/06/20 12:13:19;;;;;;;7.68;3.53;;;;;;;;;;5066743;28;20205;-77
2022/06/20 12:15:56;;;;;;;6.70;3.92;;;;;;;;;;5058753;28;20806;-75
2022/06/20 12:18:23;;;;;;;4.20;3.58;;;;;;;;;;5063949;28;20644;-74
2022/06/20 12:23:43;;;;;;;7.20;4.32;;;;;;;;;;5070047;28;20274;-75
2022/06/20 12:26:13;;;;;;;6.78;4.70;;;;;;;;;;5050090;28;20328;-75
2022/06/20 12:28:43;;;;;;;4.50;3.50;;;;;;;;;;5031230;28;21118;-76
2022/06/20 12:31:13;;;;;;;6.97;4.20;;;;;;;;;;5047103;28;20292;-74
2022/06/20 12:33:43;;;;;;;7.72;4.03;;;;;;;;;;5045728;28;20213;-74
2022/06/20 12:36:19;;;;;;;7.28;3.92;;;;;;;;;;5047665;28;20626;-76
2022/06/20 12:38:51;;;;;;;7.50;3.70;;;;;;;;;;5051465;28;20197;-74
2022/06/20 12:41:20;;;;;;;4.78;3.70;;;;;;;;;;5051486;28;20295;-76
2022/06/20 12:44:02;;;;;;;5.70;3.80;;;;;;;;;;5066590;28;20669;-76
2022/06/20 12:46:50;;;;;;;6.70;3.42;;;;;;;;;;5067086;28;20318;-75
2022/06/20 12:49:32;;;;;;;5.90;3.03;;;;;;;;;;5058016;28;20251;-77
2022/06/20 12:52:08;;;;;;;4.85;3.38;;;;;;;;;;5051061;28;20237;-77
2022/06/20 12:54:39;;;;;;;5.05;3.35;;;;;;;;;;5057670;28;20197;-75
2022/06/20 12:57:30;;;;;;;4.22;2.90;;;;;;;;;;5036477;28;20202;-76
2022/06/20 13:00:16;;;;;;;4.40;3.05;;;;;;;;;;5044641;28;20233;-75
2022/06/20 13:02:43;;;;;;;4.07;3.25;;;;;;;;;;5057534;28;20699;-75
2022/06/20 13:05:20;;;;;;;7.60;3.15;;;;;;;;;;5063663;28;20310;-75
2022/06/20 13:07:47;;;;;;;5.28;3.15;;;;;;;;;;5061664;28;20611;-75
2022/06/20 13:10:24;;;;;;;5.80;3.03;;;;;;;;;;5063185;28;20290;-77
2022/06/20 13:12:57;;;;;;;5.03;3.80;;;;;;;;;;5042188;28;20221;-76
2022/06/20 13:15:32;;;;;;;6.22;3.55;;;;;;;;;;5061553;28;20312;-75
2022/06/20 13:17:59;;;;;;;5.45;3.25;;;;;;;;;;5060767;28;20202;-76
2022/06/20 13:20:50;;;;;;;4.15;3.25;;;;;;;;;;5064768;28;20753;-76
2022/06/20 13:23:20;;;;;;;4.18;3.10;;;;;;;;;;5060289;28;20312;-76
2022/06/20 13:26:08;;;;;;;3.97;3.38;;;;;;;;;;5064053;28;20304;-77
2022/06/20 13:28:57;;;;;;;4.28;3.03;;;;;;;;;;5046491;28;20240;-76
2022/06/20 13:31:38;;;;;;;3.47;3.05;;;;;;;;;;5062136;28;20199;-76
2022/06/20 13:34:20;;;;;;;8.57;3.20;;;;;;;;;;5045600;28;20254;-78
2022/06/20 13:37:05;;;;;;;5.15;3.03;;;;;;;;;;5060029;28;20248;-76
2022/06/20 13:39:43;;;;;;;3.80;3.42;;;;;;;;;;5056795;28;20265;-76
2022/06/20 13:42:16;;;;;;;4.38;3.15;;;;;;;;;;5059562;28;20248;-75
2022/06/20 13:45:06;;;;;;;5.72;3.33;;;;;;;;;;5060802;28;20232;-76
2022/06/20 13:47:35;;;;;;;5.50;3.30;;;;;;;;;;5060782;28;20288;-76
2022/06/20 13:50:03;;;;;;;4.05;3.00;;;;;;;;;;5046073;28;20239;-76
2022/06/20 13:52:30;;;;;;;5.10;3.20;;;;;;;;;;5048567;28;20288;-76
2022/06/20 13:55:05;;;;;;;3.35;2.50;;;;;;;;;;5062584;28;20209;-77
2022/06/20 13:57:35;;;;;;;5.80;2.95;;;;;;;;;;5059679;28;20300;-77
2022/06/20 14:00:16;;;;;;;8.55;3.95;;;;;;;;;;5055745;28;20202;-75
2022/06/20 14:02:45;;;;;;;4.80;2.95;;;;;;;;;;5058773;28;20252;-78
2022/06/20 14:05:15;;;;;;;4.18;3.28;;;;;;;;;;5059156;28;20222;-77
2022/06/20 14:07:45;;;;;;;5.93;3.60;;;;;;;;;;5061141;28;20201;-77
2022/06/20 14:10:33;;;;;;;7.68;3.42;;;;;;;;;;5061436;28;20201;-76
2022/06/20 14:13:01;;;;;;;5.70;3.67;;;;;;;;;;5061832;28;20252;-77
2022/06/20 14:15:31;;;;;;;5.78;3.20;;;;;;;;;;5049386;28;20316;-75
2022/06/20 14:18:03;;;;;;;5.05;3.10;;;;;;;;;;5058422;28;20237;-77
2022/06/20 14:20:33;;;;;;;3.50;2.78;;;;;;;;;;5060091;28;20292;-76
2022/06/20 14:23:01;;;;;;;3.97;2.30;;;;;;;;;;5061474;28;20245;-77
2022/06/20 14:25:45;;;;;;;4.25;2.63;;;;;;;;;;5061019;28;20282;-77
2022/06/20 14:28:33;;;;;;;6.25;3.08;;;;;;;;;;5057691;28;20889;-76
2022/06/20 14:31:19;;;;;;;6.70;3.38;;;;;;;;;;5057652;28;20321;-76
2022/06/20 14:34:03;;;;;;;5.55;3.40;;;;;;;;;;5065598;28;20204;-77
2022/06/20 14:36:32;;;;;;;8.70;3.47;;;;;;;;;;5068450;28;20785;-75
2022/06/20 14:39:14;;;;;;;11.15;3.65;;;;;;;;;;5065045;28;20629;-76
2022/06/20 14:41:53;;;;;;;8.93;3.72;;;;;;;;;;5047124;28;20225;-75
2022/06/20 14:44:35;;;;;;;9.27;5.68;;;;;;;;;;5056377;28;20297;-75
2022/06/20 14:47:17;;;;;;;7.07;4.15;;;;;;;;;;5060949;28;20263;-76
2022/06/20 14:49:50;;;;;;;9.25;4.50;;;;;;;;;;5066745;28;20228;-75
2022/06/20 14:52:29;;;;;;;8.45;4.85;;;;;;;;;;5063516;28;20230;-74
2022/06/20 14:54:59;;;;;;;9.88;5.32;;;;;;;;;;5067129;28;20828;-75
2022/06/20 14:57:45;;;;;;;10.13;5.10;;;;;;;;;;5064928;28;20206;-76
2022/06/20 15:00:34;;;;;;;9.57;5.13;;;;;;;;;;5044437;28;20309;-76
2022/06/20 15:03:20;;;;;;;8.63;4.38;;;;;;;;;;5061968;28;20312;-77
2022/06/20 15:05:55;;;;;;;8.55;5.70;;;;;;;;;;5064361;28;20249;-76
2022/06/20 15:08:27;;;;;;;9.88;5.20;;;;;;;;;;5065351;28;20213;-77
2022/06/20 15:10:57;;;;;;;10.25;5.70;;;;;;;;;;5061786;28;20289;-75
2022/06/20 15:13:25;;;;;;;10.25;5.57;;;;;;;;;;5060233;28;20252;-75
2022/06/20 15:15:52;;;;;;;7.55;4.30;;;;;;;;;;5055237;28;20287;-76
2022/06/20 15:18:34;;;;;;;9.27;4.85;;;;;;;;;;5046738;28;23664;-76
2022/06/20 15:21:02;;;;;;;7.40;4.25;;;;;;;;;;5058108;28;20262;-77
2022/06/20 15:23:29;;;;;;;6.07;4.57;;;;;;;;;;5047014;28;20248;-76
2022/06/20 15:26:23;;;;;;;6.72;4.18;;;;;;;;;;5041877;28;20268;-77
2022/06/20 15:29:10;;;;;;;6.60;4.25;;;;;;;;;;5023738;28;20223;-80
2022/06/20 15:31:43;;;;;;;6.60;5.00;;;;;;;;;;5050211;28;20290;-76
2022/06/20 15:34:26;;;;;;;8.50;4.60;;;;;;;;;;5053290;28;20198;-81
2022/06/20 15:36:54;;;;;;;7.55;4.25;;;;;;;;;;5061204;28;20319;-78